Terminal Aerodrome Forecast
Issued by NWS Pendleton, OR

Home | Current Version | Previous Version | Text Only | Print | Product List | Glossary On
Versions: 1 2 3 4 5 6 7 8 9 10 11 12 13 14 15 16 17 18 19 20
000
FTUS46 KPDT 110236 AAB
TAFPDT
TAF AMD
KPDT 110236Z 1103/1124 32002KT 5SM BR OVC005
      TEMPO 1106/1110 1SM BR OVC002
     FM111800 34004KT P6SM OVC015=

USA.gov is the U.S. government's official web portal to all federal, state and local government web resources and services.